Time;durP1;ratioP1;P1;durP2;ratioP2;P2;SDS_P1;SDS_P2;PMS_P1;PMS_P2;Temp;Humidity;BMP_temperature;BMP_pressure;BME280_temperature;BME280_humidity;BME280_pressure;Samples;Min_cycle;Max_cycle;Signal;HPM_P1;HPM_P2
2021/01/10 00:00:47;;;;;;;123.90;72.07;;;77.50;2201.60;;;;;;5031070;28;20017;-57
2021/01/10 00:03:14;;;;;;;138.25;75.53;;;77.40;2227.20;;;;;;5031076;28;20040;-54
2021/01/10 00:05:41;;;;;;;160.60;90.68;;;77.20;2227.20;;;;;;5030529;28;20030;-55
2021/01/10 00:08:06;;;;;;;194.10;97.43;;;77.30;2227.20;;;;;;5030903;28;20033;-55
2021/01/10 00:10:33;;;;;;;189.15;98.32;;;77.30;2227.20;;;;;;5030847;28;20026;-54
2021/01/10 00:12:59;;;;;;;175.70;93.47;;;77.20;2227.20;;;;;;5030612;28;20120;-55
2021/01/10 00:15:25;;;;;;;157.35;84.70;;;77.10;2227.20;;;;;;5031055;28;20628;-54
2021/01/10 00:17:51;;;;;;;148.70;80.60;;;77.20;2227.20;;;;;;5029905;28;20057;-53
2021/01/10 00:20:17;;;;;;;112.22;68.18;;;77.10;2201.60;;;;;;5030568;28;20034;-56
2021/01/10 00:22:44;;;;;;;132.35;74.53;;;77.00;2227.20;;;;;;5031548;28;20099;-54
2021/01/10 00:25:12;;;;;;;132.52;77.90;;;77.00;2201.60;;;;;;5031242;28;20033;-55
2021/01/10 00:27:39;;;;;;;113.00;65.65;;;77.20;2201.60;;;;;;5032439;28;20129;-54
2021/01/10 00:30:13;;;;;;;109.57;68.45;;;77.20;2201.60;;;;;;5032412;28;20976;-54
2021/01/10 00:32:38;;;;;;;;;;;77.20;2227.20;;;;;;5032387;28;20052;-56
2021/01/10 00:35:07;;;;;;;107.68;60.38;;;77.20;2201.60;;;;;;5032146;28;20310;-55
2021/01/10 00:37:32;;;;;;;105.47;57.83;;;77.10;2227.20;;;;;;5032056;28;20052;-56
2021/01/10 00:39:58;;;;;;;100.40;58.95;;;77.20;2227.20;;;;;;5031755;28;20049;-54
2021/01/10 00:42:24;;;;;;;105.63;61.25;;;77.10;2227.20;;;;;;5031938;28;20037;-55
2021/01/10 00:44:50;;;;;;;108.35;59.22;;;77.20;2201.60;;;;;;5031684;28;20022;-55
2021/01/10 00:47:19;;;;;;;101.03;56.90;;;77.10;2227.20;;;;;;5031726;28;20025;-55
2021/01/10 00:49:45;;;;;;;103.97;61.60;;;77.20;2201.60;;;;;;5031992;28;20388;-54
2021/01/10 00:52:12;;;;;;;104.03;62.28;;;77.20;2227.20;;;;;;5031776;28;20057;-55
2021/01/10 00:54:38;;;;;;;108.00;60.35;;;77.20;2201.60;;;;;;5031232;28;20056;-55
2021/01/10 00:57:04;;;;;;;112.82;60.92;;;77.10;2227.20;;;;;;5031525;28;20029;-54
2021/01/10 00:59:30;;;;;;;124.25;70.38;;;77.10;2227.20;;;;;;5031305;28;20071;-54
2021/01/10 01:01:56;;;;;;;113.03;62.08;;;76.90;2227.20;;;;;;5031554;28;20437;-54
2021/01/10 01:04:22;;;;;;;110.55;66.90;;;77.00;2227.20;;;;;;5031276;28;20033;-54
2021/01/10 01:06:48;;;;;;;106.28;61.15;;;77.10;2227.20;;;;;;5031247;28;20025;-56
2021/01/10 01:09:13;;;;;;;109.78;61.70;;;77.20;2201.60;;;;;;5031507;28;20111;-54
2021/01/10 01:11:40;;;;;;;110.40;62.42;;;77.20;2201.60;;;;;;5031069;28;20060;-55
2021/01/10 01:14:08;;;;;;;119.65;66.32;;;77.20;2201.60;;;;;;5031347;28;20040;-54
2021/01/10 01:16:36;;;;;;;111.15;59.92;;;77.30;2201.60;;;;;;5031181;28;20030;-55
2021/01/10 01:19:03;;;;;;;103.53;58.85;;;77.30;2201.60;;;;;;5029639;28;20375;-55
2021/01/10 01:21:28;;;;;;;106.05;62.47;;;77.10;2227.20;;;;;;5031076;28;20049;-56
2021/01/10 01:23:54;;;;;;;108.60;64.65;;;77.20;2227.20;;;;;;5031047;28;20079;-55
2021/01/10 01:26:23;;;;;;;109.45;64.25;;;77.30;2201.60;;;;;;5030938;28;20025;-55
2021/01/10 01:28:49;;;;;;;111.47;63.17;;;77.20;2201.60;;;;;;5030977;28;20029;-56
2021/01/10 01:31:20;;;;;;;113.55;65.78;;;77.00;2227.20;;;;;;5031568;28;20025;-56
2021/01/10 01:33:46;;;;;;;107.70;63.20;;;77.00;2227.20;;;;;;5031053;28;20026;-56
2021/01/10 01:36:14;;;;;;;107.13;60.65;;;76.90;2227.20;;;;;;5030585;28;20434;-55
2021/01/10 01:38:41;;;;;;;105.40;63.53;;;77.10;2227.20;;;;;;5030648;28;20028;-55
2021/01/10 01:41:08;;;;;;;118.05;65.40;;;77.10;2227.20;;;;;;5030536;28;20375;-56
2021/01/10 01:43:34;;;;;;;98.00;56.53;;;77.20;2227.20;;;;;;5030785;28;20032;-56
2021/01/10 01:46:01;;;;;;;122.10;68.38;;;77.10;2227.20;;;;;;5030725;28;20036;-55
2021/01/10 01:48:27;;;;;;;119.68;67.55;;;76.90;2227.20;;;;;;5030231;28;20049;-56
2021/01/10 01:50:58;;;;;;;120.38;67.60;;;76.80;2227.20;;;;;;5030591;28;20025;-55
2021/01/10 01:53:26;;;;;;;125.25;68.90;;;51.90;2227.20;;;;;;5030570;28;20025;-55
2021/01/10 01:55:56;;;;;;;137.93;76.18;;;52.00;2227.20;;;;;;5030449;28;20025;-54
2021/01/10 01:58:23;;;;;;;138.93;75.88;;;52.10;2227.20;;;;;;5030557;28;20030;-55
2021/01/10 02:00:49;;;;;;;118.00;70.10;;;52.10;2227.20;;;;;;5030405;28;20026;-55
2021/01/10 02:03:39;;;;;;;128.07;73.35;;;52.00;2227.20;;;;;;5030597;28;20454;-54
2021/01/10 02:06:14;;;;;;;117.75;68.85;;;52.10;2227.20;;;;;;4988933;28;20548;-55
2021/01/10 02:08:40;;;;;;;126.35;73.25;;;76.80;2227.20;;;;;;4988663;28;20541;-55
2021/01/10 02:11:10;;;;;;;123.40;71.68;;;76.80;2227.20;;;;;;4988738;28;20030;-54
2021/01/10 02:13:38;;;;;;;101.80;62.25;;;77.00;2227.20;;;;;;4988893;28;20030;-54
2021/01/10 02:16:04;;;;;;;114.13;65.63;;;77.00;2227.20;;;;;;4988831;28;20101;-55
2021/01/10 02:18:32;;;;;;;116.10;66.20;;;77.00;2227.20;;;;;;4988538;28;20124;-55
2021/01/10 02:21:09;;;;;;;126.90;68.78;;;77.10;2227.20;;;;;;4988374;28;20503;-55
2021/01/10 02:23:39;;;;;;;113.40;58.50;;;77.00;2227.20;;;;;;4988884;28;20467;-55
2021/01/10 02:26:06;;;;;;;121.00;64.78;;;77.10;2227.20;;;;;;4988544;28;20049;-55
2021/01/10 02:28:32;;;;;;;113.28;61.00;;;77.10;2227.20;;;;;;4988836;28;20041;-55
2021/01/10 02:31:00;;;;;;;110.00;57.72;;;77.20;2227.20;;;;;;4988458;28;20034;-55
2021/01/10 02:33:41;;;;;;;96.78;54.22;;;77.00;2227.20;;;;;;4988633;28;20027;-54
2021/01/10 02:36:35;;;;;;;101.22;55.55;;;76.90;2227.20;;;;;;4988549;28;20547;-54
2021/01/10 02:39:14;;;;;;;102.53;58.63;;;76.90;2227.20;;;;;;4988458;28;20026;-54
2021/01/10 02:41:50;;;;;;;99.57;56.80;;;76.80;2227.20;;;;;;4988300;28;20194;-55
2021/01/10 02:44:22;;;;;;;96.35;54.65;;;76.90;2227.20;;;;;;5029942;28;20037;-54
2021/01/10 02:46:53;;;;;;;104.78;57.30;;;77.00;2227.20;;;;;;5029827;28;20372;-55
2021/01/10 02:49:20;;;;;;;110.60;65.00;;;76.90;2227.20;;;;;;5033592;28;20424;-54
2021/01/10 02:51:47;;;;;;;119.07;64.22;;;77.00;2227.20;;;;;;5033995;28;20375;-54
2021/01/10 02:54:13;;;;;;;117.68;64.68;;;77.10;2227.20;;;;;;5034096;28;20033;-54
2021/01/10 02:56:49;;;;;;;165.23;89.68;;;77.10;2227.20;;;;;;5033598;28;20105;-54
2021/01/10 02:59:21;;;;;;;126.28;70.43;;;76.90;2227.20;;;;;;5034013;28;20036;-54
2021/01/10 03:01:48;;;;;;;107.70;59.65;;;77.00;2227.20;;;;;;5033985;28;20458;-54
2021/01/10 03:04:15;;;;;;;91.80;55.08;;;77.00;2227.20;;;;;;5033966;28;20026;-54
2021/01/10 03:06:42;;;;;;;105.70;58.42;;;76.90;2227.20;;;;;;5033497;28;20056;-55
2021/01/10 03:09:09;;;;;;;104.18;58.65;;;76.80;2227.20;;;;;;5033463;28;20079;-55
2021/01/10 03:11:35;;;;;;;103.38;59.83;;;52.10;2227.20;;;;;;5033567;28;20024;-55
2021/01/10 03:14:02;;;;;;;97.30;59.05;;;52.10;2227.20;;;;;;5033592;28;20041;-54
2021/01/10 03:16:28;;;;;;;100.72;54.28;;;52.10;2227.20;;;;;;5033417;28;20036;-55
2021/01/10 03:18:54;;;;;;;105.20;57.08;;;52.10;2227.20;;;;;;5033292;28;20053;-54
2021/01/10 03:21:19;;;;;;;99.90;52.72;;;52.10;2227.20;;;;;;5033142;28;20088;-54
2021/01/10 03:23:45;;;;;;;91.60;53.08;;;76.80;2227.20;;;;;;5033516;28;20022;-54
2021/01/10 03:26:11;;;;;;;89.13;54.50;;;52.10;2227.20;;;;;;5033407;28;20105;-54
2021/01/10 03:28:36;;;;;;;102.60;56.55;;;76.80;2227.20;;;;;;5033704;28;20930;-55
2021/01/10 03:31:02;;;;;;;94.40;51.47;;;76.90;2227.20;;;;;;5033560;28;20383;-54
2021/01/10 03:33:28;;;;;;;109.78;61.13;;;76.80;2227.20;;;;;;5033419;28;20049;-55
2021/01/10 03:35:54;;;;;;;94.38;55.40;;;52.10;2227.20;;;;;;5033313;28;20028;-54
2021/01/10 03:38:19;;;;;;;93.47;52.40;;;52.10;2227.20;;;;;;5033108;28;20067;-54
2021/01/10 03:40:45;;;;;;;532.08;362.33;;;76.80;2227.20;;;;;;5033072;28;20028;-54
2021/01/10 03:43:11;;;;;;;111.70;60.40;;;76.80;2227.20;;;;;;5032830;28;20395;-54
2021/01/10 03:45:37;;;;;;;95.53;58.10;;;76.80;2227.20;;;;;;5031278;28;20041;-55
2021/01/10 03:48:03;;;;;;;91.18;50.03;;;52.00;2227.20;;;;;;5032668;28;20144;-54
2021/01/10 03:50:29;;;;;;;85.53;50.20;;;52.10;2227.20;;;;;;5032764;28;20070;-54
2021/01/10 03:52:54;;;;;;;87.78;51.03;;;76.80;2227.20;;;;;;5032996;28;20045;-54
2021/01/10 03:55:20;;;;;;;91.68;52.30;;;76.90;2227.20;;;;;;5032462;28;20038;-55
2021/01/10 03:57:46;;;;;;;82.60;48.70;;;52.00;2227.20;;;;;;5032840;28;20021;-54
2021/01/10 04:00:12;;;;;;;85.65;49.03;;;51.90;2227.20;;;;;;5033073;28;20388;-54
2021/01/10 04:02:38;;;;;;;91.63;49.55;;;51.80;2227.20;;;;;;5032481;28;20034;-56
2021/01/10 04:05:07;;;;;;;102.95;62.25;;;52.00;2227.20;;;;;;5032618;28;20365;-55
2021/01/10 04:07:33;;;;;;;88.15;50.40;;;52.00;2227.20;;;;;;5032487;28;20030;-55
2021/01/10 04:09:58;;;;;;;83.20;50.25;;;76.80;2227.20;;;;;;5032284;28;20025;-56
2021/01/10 04:12:24;;;;;;;101.30;58.70;;;76.80;2227.20;;;;;;5032648;28;20029;-55
2021/01/10 04:14:55;;;;;;;87.45;51.92;;;76.80;2227.20;;;;;;5032186;28;20029;-56
2021/01/10 04:17:25;;;;;;;89.65;51.15;;;76.80;2227.20;;;;;;5032077;28;20495;-55
2021/01/10 04:19:51;;;;;;;94.75;52.60;;;76.80;2227.20;;;;;;5032133;28;20494;-53
2021/01/10 04:22:17;;;;;;;101.40;55.20;;;76.80;2227.20;;;;;;5031969;28;20045;-55
2021/01/10 04:24:43;;;;;;;103.85;63.40;;;52.10;2227.20;;;;;;5032480;28;20022;-54
2021/01/10 04:27:08;;;;;;;86.40;50.22;;;76.80;2227.20;;;;;;5031993;28;20041;-54
2021/01/10 04:29:34;;;;;;;96.13;50.97;;;76.80;2227.20;;;;;;5032373;28;20030;-54
2021/01/10 04:31:59;;;;;;;100.13;53.47;;;76.90;2227.20;;;;;;5032145;28;20037;-54
2021/01/10 04:34:25;;;;;;;95.50;51.53;;;76.90;2227.20;;;;;;5032203;28;20030;-54
2021/01/10 04:36:51;;;;;;;94.38;50.45;;;76.90;2227.20;;;;;;5031789;28;20030;-54
2021/01/10 04:39:16;;;;;;;98.07;57.50;;;76.80;2227.20;;;;;;5031774;28;20052;-55
2021/01/10 04:41:44;;;;;;;84.45;50.78;;;76.90;2227.20;;;;;;5031906;28;20045;-54
2021/01/10 04:44:14;;;;;;;85.53;54.38;;;76.80;2227.20;;;;;;5031768;28;20033;-54
2021/01/10 04:46:41;;;;;;;112.05;67.53;;;76.80;2227.20;;;;;;5031696;28;20057;-54
2021/01/10 04:49:07;;;;;;;91.03;54.03;;;76.80;2227.20;;;;;;5031542;28;20052;-55
2021/01/10 04:51:36;;;;;;;92.38;59.03;;;76.90;2227.20;;;;;;5031831;28;20061;-54
2021/01/10 04:54:03;;;;;;;82.63;52.80;;;76.90;2227.20;;;;;;5031664;28;20079;-55
2021/01/10 04:56:30;;;;;;;80.97;46.60;;;76.90;2227.20;;;;;;5031356;28;20087;-54
2021/01/10 04:59:01;;;;;;;82.15;45.83;;;52.10;2227.20;;;;;;5031670;28;20036;-53
2021/01/10 05:01:34;;;;;;;85.28;48.47;;;76.90;2227.20;;;;;;5031450;28;20084;-55
2021/01/10 05:04:00;;;;;;;91.57;56.03;;;76.80;2227.20;;;;;;5031456;28;20082;-54
2021/01/10 05:06:26;;;;;;;93.18;51.45;;;76.80;2227.20;;;;;;5031470;28;20033;-54
2021/01/10 05:08:54;;;;;;;96.20;55.42;;;52.10;2227.20;;;;;;5029101;28;20021;-54
2021/01/10 05:11:20;;;;;;;78.10;47.28;;;52.10;2227.20;;;;;;5028900;28;20104;-55
2021/01/10 05:13:46;;;;;;;79.60;46.47;;;52.10;2227.20;;;;;;5029831;28;20265;-53
2021/01/10 05:16:19;;;;;;;77.55;47.55;;;52.10;2227.20;;;;;;5029903;28;20017;-54
2021/01/10 05:18:49;;;;;;;83.55;47.10;;;52.10;2227.20;;;;;;5029569;28;20052;-54
2021/01/10 05:21:14;;;;;;;76.82;45.47;;;76.80;2227.20;;;;;;5029238;28;20048;-55
2021/01/10 05:23:40;;;;;;;76.18;43.92;;;52.10;2227.20;;;;;;5029413;28;20033;-55
2021/01/10 05:26:07;;;;;;;77.43;44.25;;;76.80;2227.20;;;;;;5029601;28;20848;-55
2021/01/10 05:28:36;;;;;;;77.07;44.55;;;52.10;2227.20;;;;;;5029538;28;20057;-55
2021/01/10 05:31:08;;;;;;;87.10;48.97;;;51.90;2227.20;;;;;;5029502;28;20441;-55
2021/01/10 05:33:51;;;;;;;79.78;47.25;;;52.00;2227.20;;;;;;5029062;28;20029;-54
2021/01/10 05:36:25;;;;;;;81.93;44.87;;;51.80;2227.20;;;;;;5029298;28;20037;-55
2021/01/10 05:38:50;;;;;;;81.93;48.45;;;52.00;2227.20;;;;;;5029276;28;20029;-56
2021/01/10 05:41:17;;;;;;;76.70;45.22;;;52.10;2227.20;;;;;;5029088;28;20476;-55
2021/01/10 05:44:03;;;;;;;80.05;41.38;;;52.00;2227.20;;;;;;5029364;28;20483;-55
2021/01/10 05:46:32;;;;;;;83.35;48.53;;;51.90;2227.20;;;;;;5028765;28;20021;-54
2021/01/10 05:48:59;;;;;;;76.35;43.65;;;51.90;2227.20;;;;;;5028417;28;20088;-54
2021/01/10 05:51:27;;;;;;;78.45;44.28;;;52.00;2227.20;;;;;;5029002;28;20484;-54
2021/01/10 05:53:53;;;;;;;79.03;43.65;;;51.90;2227.20;;;;;;5029034;28;20028;-55
2021/01/10 05:56:19;;;;;;;92.60;48.67;;;52.00;2227.20;;;;;;5028816;28;20032;-55
2021/01/10 05:58:53;;;;;;;77.13;43.97;;;52.10;2227.20;;;;;;5028997;28;20027;-54
2021/01/10 06:01:20;;;;;;;75.68;43.85;;;52.10;2227.20;;;;;;5028193;28;20553;-54
2021/01/10 06:03:47;;;;;;;75.20;44.85;;;52.10;2227.20;;;;;;5028911;28;20388;-54
2021/01/10 06:06:12;;;;;;;74.47;42.60;;;76.80;2227.20;;;;;;5029002;28;20032;-54
2021/01/10 06:08:40;;;;;;;79.55;44.85;;;52.10;2227.20;;;;;;5028627;28;20017;-56
2021/01/10 06:11:26;;;;;;;76.88;46.10;;;52.10;2227.20;;;;;;5029064;28;20471;-55
2021/01/10 06:14:00;;;;;;;66.80;40.03;;;52.00;2227.20;;;;;;5028240;28;20083;-54
2021/01/10 06:16:34;;;;;;;75.90;43.75;;;51.90;2227.20;;;;;;5028991;28;20357;-56
2021/01/10 06:19:03;;;;;;;71.32;43.35;;;51.90;2227.20;;;;;;5028408;28;20474;-56
2021/01/10 06:21:30;;;;;;;73.75;40.97;;;52.00;2227.20;;;;;;5027794;28;20691;-54
2021/01/10 06:24:04;;;;;;;76.78;44.08;;;52.00;2227.20;;;;;;5028531;28;20430;-55
2021/01/10 06:26:34;;;;;;;69.32;38.92;;;51.90;2227.20;;;;;;5027914;28;20022;-55
2021/01/10 06:29:02;;;;;;;73.78;41.85;;;51.90;2227.20;;;;;;5028331;28;20033;-54
2021/01/10 06:31:32;;;;;;;70.93;41.25;;;52.00;2227.20;;;;;;5028361;28;20026;-55
2021/01/10 06:34:05;;;;;;;71.30;42.47;;;51.90;2227.20;;;;;;5028457;28;20064;-56
2021/01/10 06:36:33;;;;;;;69.72;37.85;;;51.90;2227.20;;;;;;5028455;28;20040;-54
2021/01/10 06:39:06;;;;;;;66.22;38.70;;;52.00;2227.20;;;;;;5027785;28;20118;-55
2021/01/10 06:41:35;;;;;;;68.80;39.55;;;52.00;2227.20;;;;;;5028207;28;20504;-55
2021/01/10 06:44:06;;;;;;;63.38;37.25;;;76.80;2227.20;;;;;;5028218;28;20026;-54
2021/01/10 06:46:32;;;;;;;66.85;36.38;;;76.80;2227.20;;;;;;5028309;28;20419;-54
2021/01/10 06:49:01;;;;;;;76.18;42.95;;;77.00;2227.20;;;;;;5027123;28;20072;-55
2021/01/10 06:51:28;;;;;;;81.18;54.88;;;52.10;2227.20;;;;;;5016150;28;20022;-55
2021/01/10 06:53:55;;;;;;;74.00;45.30;;;52.10;2227.20;;;;;;5026617;28;20399;-53
2021/01/10 06:56:21;;;;;;;74.25;48.78;;;52.10;2227.20;;;;;;5026828;28;20045;-54
2021/01/10 06:59:10;;;;;;;57.20;33.17;;;77.20;2227.20;;;;;;5016064;28;20061;-56
2021/01/10 07:01:56;;;;;;;55.65;31.67;;;51.90;2227.20;;;;;;5025014;28;20483;-54
2021/01/10 07:04:36;;;;;;;77.65;42.67;;;51.80;2227.20;;;;;;5025918;28;20083;-55
2021/01/10 07:07:03;;;;;;;104.57;55.90;;;51.90;2227.20;;;;;;5025910;28;20036;-54
2021/01/10 07:09:52;;;;;;;62.17;36.55;;;52.10;2227.20;;;;;;5027801;28;20053;-55
2021/01/10 07:12:20;;;;;;;69.57;37.85;;;76.80;2227.20;;;;;;5028091;28;20018;-56
2021/01/10 07:14:46;;;;;;;57.28;35.22;;;76.90;2227.20;;;;;;5028039;28;20036;-56
2021/01/10 07:17:13;;;;;;;107.50;62.72;;;52.00;2227.20;;;;;;5028149;28;20034;-54
2021/01/10 07:19:46;;;;;;;73.70;43.55;;;76.80;2227.20;;;;;;5027609;28;20029;-55
2021/01/10 07:22:21;;;;;;;;;;;76.90;2227.20;;;;;;5028637;28;20107;-54
2021/01/10 07:24:47;;;;;;;74.30;43.38;;;77.00;2227.20;;;;;;5027960;28;20442;-55
2021/01/10 07:27:27;;;;;;;66.85;39.63;;;76.90;2227.20;;;;;;5027895;28;20132;-53
2021/01/10 07:29:53;;;;;;;92.18;56.15;;;77.00;2227.20;;;;;;5028084;28;20045;-56
2021/01/10 07:32:32;;;;;;;76.80;43.92;;;77.00;2227.20;;;;;;5027696;28;20025;-54
2021/01/10 07:35:00;;;;;;;77.50;47.55;;;77.10;2227.20;;;;;;5031196;28;20028;-55
2021/01/10 07:37:26;;;;;;;72.53;52.10;;;77.10;2227.20;;;;;;5025718;28;20555;-54
2021/01/10 07:39:54;;;;;;;75.55;47.90;;;77.10;2227.20;;;;;;5031033;28;20117;-56
2021/01/10 07:42:22;;;;;;;72.10;47.15;;;77.20;2227.20;;;;;;5030992;28;20042;-57
2021/01/10 07:44:52;;;;;;;87.15;51.15;;;77.50;2227.20;;;;;;5030493;28;20029;-58
2021/01/10 07:47:31;;;;;;;91.68;47.90;;;77.50;2227.20;;;;;;5030844;28;20037;-59
2021/01/10 07:49:58;;;;;;;61.30;37.97;;;77.60;2227.20;;;;;;5031286;28;20056;-59
2021/01/10 07:52:42;;;;;;;56.63;35.30;;;77.40;2201.60;;;;;;5030855;28;20037;-60
2021/01/10 07:55:20;;;;;;;68.45;38.40;;;77.50;2201.60;;;;;;5030980;28;20053;-58
2021/01/10 07:58:12;;;;;;;60.85;36.47;;;77.70;2176.00;;;;;;5011942;28;20077;-58
2021/01/10 08:00:47;;;;;;;61.45;36.90;;;77.70;2176.00;;;;;;5011044;28;20018;-58
2021/01/10 08:03:27;;;;;;;79.93;48.55;;;102.50;2150.40;;;;;;5011048;28;20449;-59
2021/01/10 08:06:10;;;;;;;100.22;64.35;;;102.50;2176.00;;;;;;5010697;28;20025;-59
2021/01/10 08:08:45;;;;;;;;;;;102.80;2150.40;;;;;;5011701;28;20022;-59
2021/01/10 08:11:11;;;;;;;76.90;49.67;;;102.80;2124.80;;;;;;5010802;28;19910;-59
2021/01/10 08:13:41;;;;;;;75.20;48.70;;;102.60;2124.80;;;;;;5010455;28;20037;-59
2021/01/10 08:16:12;;;;;;;71.00;42.75;;;102.60;2124.80;;;;;;5010762;28;20053;-60
2021/01/10 08:18:45;;;;;;;44.45;28.17;;;102.70;2124.80;;;;;;5010657;28;20073;-62
2021/01/10 08:21:15;;;;;;;42.95;27.60;;;102.60;2124.80;;;;;;5010079;28;20049;-59
2021/01/10 08:23:43;;;;;;;42.95;26.33;;;102.60;2150.40;;;;;;5010638;28;20033;-59
2021/01/10 08:26:11;;;;;;;46.25;28.85;;;102.50;2150.40;;;;;;5010501;28;20045;-60
2021/01/10 08:28:46;;;;;;;76.68;49.90;;;102.60;2124.80;;;;;;5012256;28;20116;-60
2021/01/10 08:31:13;;;;;;;46.65;28.85;;;102.70;2124.80;;;;;;5012813;28;20049;-58
2021/01/10 08:33:40;;;;;;;61.97;39.33;;;102.70;2124.80;;;;;;5012677;28;20141;-59
2021/01/10 08:36:12;;;;;;;52.03;31.35;;;102.80;2099.20;;;;;;5012066;28;20083;-60
2021/01/10 08:38:57;;;;;;;41.05;24.83;;;102.90;2099.20;;;;;;5012507;28;20022;-61
2021/01/10 08:41:38;;;;;;;37.47;23.88;;;103.00;2073.60;;;;;;5012339;28;20037;-58
2021/01/10 08:44:09;;;;;;;40.08;25.77;;;102.90;2099.20;;;;;;5011477;28;20068;-57
2021/01/10 08:46:37;;;;;;;47.75;31.10;;;103.20;2048.00;;;;;;5012029;28;20188;-59
2021/01/10 08:49:04;;;;;;;38.95;25.77;;;103.30;2048.00;;;;;;5012087;28;20446;-60
2021/01/10 08:51:37;;;;;;;38.13;25.00;;;103.30;2048.00;;;;;;5011521;28;20072;-59
2021/01/10 08:54:15;;;;;;;42.83;25.30;;;128.10;2048.00;;;;;;5010508;28;20140;-59
2021/01/10 08:56:45;;;;;;;37.53;23.60;;;128.20;2022.40;;;;;;5009939;28;20017;-59
2021/01/10 08:59:11;;;;;;;54.97;39.38;;;128.20;2022.40;;;;;;5009555;28;20117;-58
2021/01/10 09:01:38;;;;;;;52.83;33.10;;;128.10;2022.40;;;;;;5010111;28;20524;-59
2021/01/10 09:04:13;;;;;;;86.90;59.00;;;128.20;2022.40;;;;;;5010094;28;20488;-58
2021/01/10 09:06:59;;;;;;;121.93;80.72;;;128.30;2022.40;;;;;;5008890;28;20030;-58
2021/01/10 09:09:31;;;;;;;100.03;64.18;;;128.50;1996.80;;;;;;5010037;28;20033;-58
2021/01/10 09:12:08;;;;;;;140.60;94.10;;;128.40;2022.40;;;;;;5009824;28;20030;-58
2021/01/10 09:14:51;;;;;;;122.07;78.55;;;128.40;2022.40;;;;;;5009464;28;20502;-58
2021/01/10 09:17:23;;;;;;;153.95;97.40;;;128.60;2048.00;;;;;;5009677;28;20065;-60
2021/01/10 09:19:54;;;;;;;130.55;84.95;;;128.10;2073.60;;;;;;5008739;28;20034;-59
2021/01/10 09:22:26;;;;;;;98.43;65.05;;;128.20;2048.00;;;;;;5009594;28;20041;-59
2021/01/10 09:24:51;;;;;;;76.00;50.53;;;128.00;2048.00;;;;;;5009493;28;20571;-58
2021/01/10 09:27:17;;;;;;;85.47;53.08;;;103.30;2022.40;;;;;;5008956;28;20053;-59
2021/01/10 09:29:43;;;;;;;109.60;71.95;;;103.30;2048.00;;;;;;5009619;28;20030;-58
2021/01/10 09:32:19;;;;;;;104.68;69.50;;;103.30;2048.00;;;;;;5009566;28;20117;-59
2021/01/10 09:34:45;;;;;;;97.90;61.70;;;103.20;2048.00;;;;;;5008910;28;20381;-59
2021/01/10 09:37:10;;;;;;;135.70;89.68;;;103.10;2048.00;;;;;;5009493;28;20033;-60
2021/01/10 09:39:41;;;;;;;94.57;65.45;;;103.10;2048.00;;;;;;5009392;28;20091;-58
2021/01/10 09:42:07;;;;;;;148.20;102.43;;;102.90;2073.60;;;;;;5009030;28;20026;-60
2021/01/10 09:44:33;;;;;;;117.38;74.68;;;102.80;2073.60;;;;;;5009533;28;20083;-61
2021/01/10 09:46:59;;;;;;;58.13;38.33;;;102.90;2048.00;;;;;;5008681;28;20378;-60
2021/01/10 09:49:32;;;;;;;86.95;51.65;;;102.90;2048.00;;;;;;5008614;28;20061;-59
2021/01/10 09:52:02;;;;;;;211.10;141.82;;;102.80;2099.20;;;;;;5009204;28;20076;-60
2021/01/10 09:54:32;;;;;;;94.60;58.78;;;102.80;2099.20;;;;;;5008987;28;20037;-59
2021/01/10 09:57:11;;;;;;;155.05;104.28;;;102.80;2073.60;;;;;;5008252;28;20022;-58
2021/01/10 09:59:42;;;;;;;103.22;63.20;;;102.60;2099.20;;;;;;5008514;28;20034;-58
2021/01/10 10:02:35;;;;;;;91.03;60.38;;;102.50;2124.80;;;;;;5008852;28;20041;-59
2021/01/10 10:05:08;;;;;;;94.13;57.58;;;102.40;2124.80;;;;;;5008439;28;20541;-59
2021/01/10 10:07:41;;;;;;;92.13;55.00;;;102.50;2099.20;;;;;;5008707;28;20105;-59
2021/01/10 10:10:26;;;;;;;;;;;102.40;2124.80;;;;;;5009238;28;20022;-59
2021/01/10 10:13:02;;;;;;;;;;;77.40;2176.00;;;;;;5008166;28;19905;-60
2021/01/10 10:15:42;;;;;;;70.10;40.88;;;77.40;2150.40;;;;;;5008634;28;19906;-60
2021/01/10 10:18:09;;;;;;;51.58;35.55;;;77.60;2150.40;;;;;;5008603;28;20034;-59
2021/01/10 10:20:35;;;;;;;76.97;50.58;;;77.40;2150.40;;;;;;5008323;28;20562;-59
2021/01/10 10:23:15;;;;;;;75.10;45.20;;;77.40;2176.00;;;;;;5008677;28;20041;-59
2021/01/10 10:25:42;;;;;;;94.00;57.15;;;77.70;2150.40;;;;;;5008119;28;20034;-59
2021/01/10 10:28:08;;;;;;;98.03;60.30;;;77.50;2176.00;;;;;;5007181;28;20030;-60
2021/01/10 10:30:34;;;;;;;86.05;53.60;;;77.70;2150.40;;;;;;5008824;28;20029;-59
2021/01/10 10:33:01;;;;;;;164.05;106.40;;;102.60;2099.20;;;;;;5008739;28;20496;-59
2021/01/10 10:35:27;;;;;;;88.50;49.60;;;102.50;2099.20;;;;;;5008306;28;20056;-59
2021/01/10 10:37:53;;;;;;;90.55;59.03;;;102.60;2073.60;;;;;;5007971;28;20109;-59
2021/01/10 10:40:19;;;;;;;208.32;137.73;;;77.70;2150.40;;;;;;5017235;28;20475;-58
2021/01/10 10:42:46;;;;;;;138.55;88.45;;;102.50;2124.80;;;;;;5026354;28;20037;-59
2021/01/10 10:45:12;;;;;;;155.02;95.80;;;102.50;2150.40;;;;;;5026041;28;20423;-58
2021/01/10 10:47:38;;;;;;;94.78;60.53;;;102.50;2150.40;;;;;;5028135;28;20072;-59
2021/01/10 10:50:05;;;;;;;121.57;68.47;;;102.60;2124.80;;;;;;5027746;28;20095;-58
2021/01/10 10:52:31;;;;;;;148.63;103.03;;;102.60;2099.20;;;;;;5027662;28;20542;-58
2021/01/10 10:54:56;;;;;;;208.80;156.57;;;102.70;2099.20;;;;;;5028235;28;20109;-59
2021/01/10 10:57:22;;;;;;;115.90;75.53;;;102.70;2099.20;;;;;;5027794;28;20021;-58
2021/01/10 10:59:48;;;;;;;242.00;170.95;;;102.80;2099.20;;;;;;5027930;28;20032;-60
2021/01/10 11:02:15;;;;;;;163.93;113.57;;;102.80;2099.20;;;;;;5028036;28;20093;-58
2021/01/10 11:04:42;;;;;;;201.23;139.82;;;102.40;2124.80;;;;;;5027107;28;20369;-59
2021/01/10 11:07:09;;;;;;;124.05;80.88;;;102.50;2150.40;;;;;;5027799;28;20033;-58
2021/01/10 11:09:35;;;;;;;114.95;71.18;;;102.60;2150.40;;;;;;5031182;28;20030;-58
2021/01/10 11:12:01;;;;;;;160.20;100.28;;;102.40;2150.40;;;;;;5031383;28;20034;-59
2021/01/10 11:14:27;;;;;;;240.13;145.10;;;102.40;2150.40;;;;;;5031575;28;20037;-59
2021/01/10 11:16:53;;;;;;;132.77;78.78;;;102.50;2150.40;;;;;;5031872;28;20523;-58
2021/01/10 11:19:22;;;;;;;149.30;90.43;;;102.50;2150.40;;;;;;5030647;28;20391;-60
2021/01/10 11:21:49;;;;;;;101.15;59.17;;;77.70;2176.00;;;;;;5031494;28;20033;-58
2021/01/10 11:24:16;;;;;;;67.35;37.78;;;102.50;2150.40;;;;;;5031686;28;20029;-59
2021/01/10 11:26:44;;;;;;;54.55;33.97;;;77.70;2150.40;;;;;;5031106;28;20013;-60
2021/01/10 11:29:11;;;;;;;78.95;51.83;;;77.60;2150.40;;;;;;5031365;28;20037;-59
2021/01/10 11:31:38;;;;;;;74.75;50.78;;;77.70;2176.00;;;;;;5031154;28;20109;-58
2021/01/10 11:34:06;;;;;;;70.03;37.20;;;102.40;2176.00;;;;;;5031253;28;20048;-60
2021/01/10 11:36:33;;;;;;;151.82;93.75;;;77.20;2201.60;;;;;;5031345;28;20041;-59
2021/01/10 11:38:59;;;;;;;62.90;35.80;;;77.40;2176.00;;;;;;5030843;28;20524;-60
2021/01/10 11:41:25;;;;;;;61.92;38.38;;;77.40;2201.60;;;;;;5030353;28;20053;-58
2021/01/10 11:43:51;;;;;;;92.80;51.63;;;77.40;2176.00;;;;;;5022184;28;20128;-60
2021/01/10 11:46:18;;;;;;;81.63;47.08;;;77.50;2201.60;;;;;;5031292;28;20119;-59
2021/01/10 11:48:44;;;;;;;92.85;56.65;;;77.50;2176.00;;;;;;5030629;28;20054;-60
2021/01/10 11:51:12;;;;;;;98.57;56.38;;;77.60;2176.00;;;;;;5031169;28;20030;-60
2021/01/10 11:53:39;;;;;;;158.82;79.55;;;102.40;2124.80;;;;;;5030924;28;20032;-60
2021/01/10 11:56:05;;;;;;;276.38;122.03;;;102.50;2124.80;;;;;;5030747;28;20531;-60
2021/01/10 11:58:31;;;;;;;90.88;51.15;;;102.40;2150.40;;;;;;5030451;28;20025;-59
2021/01/10 12:00:57;;;;;;;78.75;41.95;;;77.70;2124.80;;;;;;5025626;28;20029;-59
2021/01/10 12:03:25;;;;;;;135.30;92.97;;;77.30;2201.60;;;;;;5021407;28;20471;-60
2021/01/10 12:05:51;;;;;;;122.53;64.57;;;77.60;2176.00;;;;;;5020387;28;20026;-60
2021/01/10 12:08:18;;;;;;;123.05;67.07;;;77.40;2201.60;;;;;;5030310;28;20029;-57
2021/01/10 12:10:44;;;;;;;103.03;55.88;;;77.70;2150.40;;;;;;5029516;28;20013;-59
2021/01/10 12:13:10;;;;;;;236.75;110.85;;;77.70;2124.80;;;;;;5029964;28;20036;-59